sensor_id;sensor_type;location;lat;lon;timestamp;P1;durP1;ratioP1;P2;durP2;ratioP2
34146;SDS011;20423;49.448;9.056;2023-07-20T00:00:36;1.6;;;1.6;;
34146;SDS011;20423;49.448;9.056;2023-07-20T00:05:54;1.2;;;1;;
34146;SDS011;20423;49.448;9.056;2023-07-20T00:10:14;1.7;;;1.5;;
34146;SDS011;20423;49.448;9.056;2023-07-20T00:15:40;1.7;;;1.5;;
34146;SDS011;20423;49.448;9.056;2023-07-20T00:20:40;1.8;;;1.7;;
34146;SDS011;20423;49.448;9.056;2023-07-20T00:25:56;1.5;;;1.2;;
34146;SDS011;20423;49.448;9.056;2023-07-20T00:30:56;2.2;;;1.5;;
34146;SDS011;20423;49.448;9.056;2023-07-20T00:35:20;1.1;;;1.1;;
34146;SDS011;20423;49.448;9.056;2023-07-20T00:40:56;1.2;;;1.1;;
34146;SDS011;20423;49.448;9.056;2023-07-20T00:45:28;1.5;;;1.2;;
34146;SDS011;20423;49.448;9.056;2023-07-20T00:50:08;1.8;;;1;;
34146;SDS011;20423;49.448;9.056;2023-07-20T00:55:40;1.9;;;1.5;;
34146;SDS011;20423;49.448;9.056;2023-07-20T01:00:36;2.1;;;1.5;;
34146;SDS011;20423;49.448;9.056;2023-07-20T01:05:48;1.8;;;1.5;;
34146;SDS011;20423;49.448;9.056;2023-07-20T01:10:36;2;;;1.6;;
34146;SDS011;20423;49.448;9.056;2023-07-20T01:15:56;2;;;1.7;;
34146;SDS011;20423;49.448;9.056;2023-07-20T01:20:36;2;;;1.8;;
34146;SDS011;20423;49.448;9.056;2023-07-20T01:26:12;1.9;;;1.8;;
34146;SDS011;20423;49.448;9.056;2023-07-20T01:30:19;2.5;;;2;;
34146;SDS011;20423;49.448;9.056;2023-07-20T01:35:56;2.3;;;1.9;;
34146;SDS011;20423;49.448;9.056;2023-07-20T01:40:48;2.1;;;1.5;;
34146;SDS011;20423;49.448;9.056;2023-07-20T01:45:40;2.8;;;1.8;;
34146;SDS011;20423;49.448;9.056;2023-07-20T01:50:08;2.3;;;1.7;;
34146;SDS011;20423;49.448;9.056;2023-07-20T01:55:08;1.5;;;1.4;;
34146;SDS011;20423;49.448;9.056;2023-07-20T02:00:56;2;;;1.9;;
34146;SDS011;20423;49.448;9.056;2023-07-20T02:05:32;2.2;;;2;;
34146;SDS011;20423;49.448;9.056;2023-07-20T02:10:28;2.6;;;2.2;;
34146;SDS011;20423;49.448;9.056;2023-07-20T02:15:56;2.5;;;2.5;;
34146;SDS011;20423;49.448;9.056;2023-07-20T02:20:56;2.7;;;2;;
34146;SDS011;20423;49.448;9.056;2023-07-20T02:25:32;2.8;;;2.5;;
34146;SDS011;20423;49.448;9.056;2023-07-20T02:30:14;3;;;2.3;;
34146;SDS011;20423;49.448;9.056;2023-07-20T02:35:48;2.5;;;2.2;;
34146;SDS011;20423;49.448;9.056;2023-07-20T02:40:30;2.9;;;2.3;;
34146;SDS011;20423;49.448;9.056;2023-07-20T02:45:26;2.4;;;1.9;;
34146;SDS011;20423;49.448;9.056;2023-07-20T02:50:14;3;;;2.3;;
34146;SDS011;20423;49.448;9.056;2023-07-20T02:55:56;2.9;;;2.2;;
34146;SDS011;20423;49.448;9.056;2023-07-20T03:00:08;2.4;;;2.2;;
34146;SDS011;20423;49.448;9.056;2023-07-20T03:05:08;2.3;;;1.8;;
34146;SDS011;20423;49.448;9.056;2023-07-20T03:10:56;3;;;2.1;;
34146;SDS011;20423;49.448;9.056;2023-07-20T03:15:30;3.1;;;2.2;;
34146;SDS011;20423;49.448;9.056;2023-07-20T03:20:56;2.6;;;1.9;;
34146;SDS011;20423;49.448;9.056;2023-07-20T03:25:14;2.8;;;2.6;;
34146;SDS011;20423;49.448;9.056;2023-07-20T03:30:14;3;;;2.7;;
34146;SDS011;20423;49.448;9.056;2023-07-20T03:35:22;2.7;;;2.1;;
34146;SDS011;20423;49.448;9.056;2023-07-20T03:40:48;2.9;;;2.2;;
34146;SDS011;20423;49.448;9.056;2023-07-20T03:45:08;2.9;;;2.5;;
34146;SDS011;20423;49.448;9.056;2023-07-20T03:50:36;2.5;;;1.9;;
34146;SDS011;20423;49.448;9.056;2023-07-20T03:55:22;2.2;;;2.2;;
34146;SDS011;20423;49.448;9.056;2023-07-20T04:00:08;2.3;;;2.1;;
34146;SDS011;20423;49.448;9.056;2023-07-20T04:05:14;3.2;;;2.5;;
34146;SDS011;20423;49.448;9.056;2023-07-20T04:10:56;2.4;;;2.1;;
34146;SDS011;20423;49.448;9.056;2023-07-20T04:15:56;2.5;;;2.1;;
34146;SDS011;20423;49.448;9.056;2023-07-20T04:20:22;2.4;;;2.2;;
34146;SDS011;20423;49.448;9.056;2023-07-20T04:25:36;2.6;;;2.1;;
34146;SDS011;20423;49.448;9.056;2023-07-20T04:31:08;3.2;;;2.6;;
34146;SDS011;20423;49.448;9.056;2023-07-20T04:35:08;2.7;;;2.2;;
34146;SDS011;20423;49.448;9.056;2023-07-20T04:40:15;2.9;;;2.5;;
34146;SDS011;20423;49.448;9.056;2023-07-20T04:45:16;3.1;;;2.2;;
34146;SDS011;20423;49.448;9.056;2023-07-20T04:50:56;3.2;;;2.5;;
34146;SDS011;20423;49.448;9.056;2023-07-20T04:55:10;2.1;;;1.8;;
34146;SDS011;20423;49.448;9.056;2023-07-20T05:00:08;2.2;;;2;;
34146;SDS011;20423;49.448;9.056;2023-07-20T05:05:54;2.2;;;1.8;;
34146;SDS011;20423;49.448;9.056;2023-07-20T05:10:08;2.3;;;1.9;;
34146;SDS011;20423;49.448;9.056;2023-07-20T05:15:40;2.6;;;1.8;;
34146;SDS011;20423;49.448;9.056;2023-07-20T05:20:40;2.2;;;2.1;;
34146;SDS011;20423;49.448;9.056;2023-07-20T05:25:36;2.6;;;2.3;;
34146;SDS011;20423;49.448;9.056;2023-07-20T05:30:34;2.7;;;2.1;;
34146;SDS011;20423;49.448;9.056;2023-07-20T05:35:40;2.4;;;2;;
34146;SDS011;20423;49.448;9.056;2023-07-20T05:40:43;2;;;1.7;;
34146;SDS011;20423;49.448;9.056;2023-07-20T05:45:14;2.1;;;2.1;;
34146;SDS011;20423;49.448;9.056;2023-07-20T05:50:56;2.1;;;1.9;;
34146;SDS011;20423;49.448;9.056;2023-07-20T05:55:56;1.5;;;1.2;;
34146;SDS011;20423;49.448;9.056;2023-07-20T06:00:56;3;;;1.7;;
34146;SDS011;20423;49.448;9.056;2023-07-20T06:05:48;2;;;1.7;;
34146;SDS011;20423;49.448;9.056;2023-07-20T06:10:54;2;;;2;;
34146;SDS011;20423;49.448;9.056;2023-07-20T06:15:31;2;;;1.7;;
34146;SDS011;20423;49.448;9.056;2023-07-20T06:20:08;2.3;;;1.8;;
34146;SDS011;20423;49.448;9.056;2023-07-20T06:25:56;2.3;;;1.9;;
34146;SDS011;20423;49.448;9.056;2023-07-20T06:30:38;2;;;1.9;;
34146;SDS011;20423;49.448;9.056;2023-07-20T06:35:15;2.8;;;2.1;;
34146;SDS011;20423;49.448;9.056;2023-07-20T06:40:56;2.2;;;1.5;;
34146;SDS011;20423;49.448;9.056;2023-07-20T06:45:56;2;;;1.3;;
34146;SDS011;20423;49.448;9.056;2023-07-20T06:50:08;2;;;1.9;;
34146;SDS011;20423;49.448;9.056;2023-07-20T06:55:14;2;;;1.4;;
34146;SDS011;20423;49.448;9.056;2023-07-20T07:00:48;2.1;;;1.8;;
34146;SDS011;20423;49.448;9.056;2023-07-20T07:05:48;2.6;;;1.8;;
34146;SDS011;20423;49.448;9.056;2023-07-20T07:10:28;1.5;;;1.3;;
34146;SDS011;20423;49.448;9.056;2023-07-20T07:15:20;2.2;;;1.7;;
34146;SDS011;20423;49.448;9.056;2023-07-20T07:20:08;2.2;;;1.9;;
34146;SDS011;20423;49.448;9.056;2023-07-20T07:25:26;1.7;;;1.4;;
34146;SDS011;20423;49.448;9.056;2023-07-20T07:30:32;1.9;;;1.4;;
34146;SDS011;20423;49.448;9.056;2023-07-20T07:35:56;1.5;;;1.3;;
34146;SDS011;20423;49.448;9.056;2023-07-20T07:40:36;2.2;;;1.4;;
34146;SDS011;20423;49.448;9.056;2023-07-20T07:45:56;1.7;;;1.3;;
34146;SDS011;20423;49.448;9.056;2023-07-20T07:50:14;1.6;;;1.3;;
34146;SDS011;20423;49.448;9.056;2023-07-20T07:55:14;1.9;;;1.6;;
34146;SDS011;20423;49.448;9.056;2023-07-20T08:00:08;2;;;1.7;;
34146;SDS011;20423;49.448;9.056;2023-07-20T08:05:08;1.8;;;1.3;;
34146;SDS011;20423;49.448;9.056;2023-07-20T08:10:28;1.6;;;1.3;;
34146;SDS011;20423;49.448;9.056;2023-07-20T08:15:36;2;;;1.6;;
34146;SDS011;20423;49.448;9.056;2023-07-20T08:20:36;1.5;;;1.5;;
34146;SDS011;20423;49.448;9.056;2023-07-20T08:25:20;1.6;;;1.5;;
34146;SDS011;20423;49.448;9.056;2023-07-20T08:30:08;1.8;;;1.5;;
34146;SDS011;20423;49.448;9.056;2023-07-20T08:35:56;1.7;;;1.2;;
34146;SDS011;20423;49.448;9.056;2023-07-20T08:40:56;2.2;;;1.6;;
34146;SDS011;20423;49.448;9.056;2023-07-20T08:45:28;1.8;;;1.3;;
34146;SDS011;20423;49.448;9.056;2023-07-20T08:50:30;1.4;;;1.4;;
34146;SDS011;20423;49.448;9.056;2023-07-20T08:55:56;1.5;;;1.1;;
34146;SDS011;20423;49.448;9.056;2023-07-20T09:00:14;2.1;;;1.5;;
34146;SDS011;20423;49.448;9.056;2023-07-20T09:05:14;1.7;;;1.2;;
34146;SDS011;20423;49.448;9.056;2023-07-20T09:10:38;1.8;;;1.3;;
34146;SDS011;20423;49.448;9.056;2023-07-20T09:15:54;1.4;;;1.2;;
34146;SDS011;20423;49.448;9.056;2023-07-20T09:20:46;1.3;;;1;;
34146;SDS011;20423;49.448;9.056;2023-07-20T09:25:20;2.1;;;1.7;;
34146;SDS011;20423;49.448;9.056;2023-07-20T09:30:54;1.9;;;1.3;;
34146;SDS011;20423;49.448;9.056;2023-07-20T09:35:28;1;;;0.9;;
34146;SDS011;20423;49.448;9.056;2023-07-20T09:40:08;1.8;;;1.2;;
34146;SDS011;20423;49.448;9.056;2023-07-20T09:45:16;1.6;;;1.1;;
34146;SDS011;20423;49.448;9.056;2023-07-20T09:50:34;1.6;;;1;;
34146;SDS011;20423;49.448;9.056;2023-07-20T09:55:44;1.4;;;1.1;;
34146;SDS011;20423;49.448;9.056;2023-07-20T10:00:10;1.8;;;1.4;;
34146;SDS011;20423;49.448;9.056;2023-07-20T10:05:57;1.5;;;1.3;;
34146;SDS011;20423;49.448;9.056;2023-07-20T10:10:28;1.4;;;1;;
34146;SDS011;20423;49.448;9.056;2023-07-20T10:15:58;1.4;;;1.3;;
34146;SDS011;20423;49.448;9.056;2023-07-20T10:20:32;2.5;;;2;;
34146;SDS011;20423;49.448;9.056;2023-07-20T10:25:57;3;;;2.3;;
34146;SDS011;20423;49.448;9.056;2023-07-20T10:30:56;3.8;;;3.2;;
34146;SDS011;20423;49.448;9.056;2023-07-20T10:35:56;1.4;;;1.2;;
34146;SDS011;20423;49.448;9.056;2023-07-20T10:40:23;1.9;;;1.4;;
34146;SDS011;20423;49.448;9.056;2023-07-20T10:45:14;2;;;1.7;;
34146;SDS011;20423;49.448;9.056;2023-07-20T10:51:12;1.8;;;1.4;;
34146;SDS011;20423;49.448;9.056;2023-07-20T10:55:38;2.3;;;1.7;;
34146;SDS011;20423;49.448;9.056;2023-07-20T11:00:09;1.9;;;1.5;;
34146;SDS011;20423;49.448;9.056;2023-07-20T11:05:42;2.6;;;2.2;;
34146;SDS011;20423;49.448;9.056;2023-07-20T11:11:20;1.7;;;1.2;;
34146;SDS011;20423;49.448;9.056;2023-07-20T11:15:26;2.3;;;1.9;;
34146;SDS011;20423;49.448;9.056;2023-07-20T11:20:40;3.3;;;3;;
34146;SDS011;20423;49.448;9.056;2023-07-20T11:25:56;5.5;;;4.8;;
34146;SDS011;20423;49.448;9.056;2023-07-20T11:30:50;12;;;10.9;;
34146;SDS011;20423;49.448;9.056;2023-07-20T11:35:48;4.3;;;4.1;;
34146;SDS011;20423;49.448;9.056;2023-07-20T11:40:14;5.8;;;4.6;;
34146;SDS011;20423;49.448;9.056;2023-07-20T11:45:09;2.9;;;2.7;;
34146;SDS011;20423;49.448;9.056;2023-07-20T11:50:26;14.7;;;12.4;;
34146;SDS011;20423;49.448;9.056;2023-07-20T11:55:08;5.7;;;5.1;;
34146;SDS011;20423;49.448;9.056;2023-07-20T12:00:56;3.4;;;2.7;;
34146;SDS011;20423;49.448;9.056;2023-07-20T12:05:37;4;;;3.7;;
34146;SDS011;20423;49.448;9.056;2023-07-20T12:10:56;2.3;;;1.9;;
34146;SDS011;20423;49.448;9.056;2023-07-20T12:15:15;2.5;;;2.2;;
34146;SDS011;20423;49.448;9.056;2023-07-20T12:20:12;2.1;;;1.8;;
34146;SDS011;20423;49.448;9.056;2023-07-20T12:25:08;6.6;;;6.1;;
34146;SDS011;20423;49.448;9.056;2023-07-20T12:30:32;2.4;;;2.2;;
34146;SDS011;20423;49.448;9.056;2023-07-20T12:35:12;5.3;;;4.1;;
34146;SDS011;20423;49.448;9.056;2023-07-20T12:40:34;4.6;;;4.2;;
34146;SDS011;20423;49.448;9.056;2023-07-20T12:45:36;4.3;;;3.8;;
34146;SDS011;20423;49.448;9.056;2023-07-20T12:50:20;6.7;;;5.2;;
34146;SDS011;20423;49.448;9.056;2023-07-20T12:55:14;4.8;;;4.2;;
34146;SDS011;20423;49.448;9.056;2023-07-20T13:00:56;2.9;;;2.2;;
34146;SDS011;20423;49.448;9.056;2023-07-20T13:05:56;2.8;;;2.3;;
34146;SDS011;20423;49.448;9.056;2023-07-20T13:10:14;2.8;;;2.3;;
34146;SDS011;20423;49.448;9.056;2023-07-20T13:15:31;3.1;;;2.6;;
34146;SDS011;20423;49.448;9.056;2023-07-20T13:20:56;2.7;;;2.5;;
34146;SDS011;20423;49.448;9.056;2023-07-20T13:25:28;13.5;;;12.2;;
34146;SDS011;20423;49.448;9.056;2023-07-20T13:30:20;8.8;;;8.1;;
34146;SDS011;20423;49.448;9.056;2023-07-20T13:35:40;6;;;5.2;;
34146;SDS011;20423;49.448;9.056;2023-07-20T13:40:54;5.6;;;5.2;;
34146;SDS011;20423;49.448;9.056;2023-07-20T13:45:56;7;;;5.8;;
34146;SDS011;20423;49.448;9.056;2023-07-20T13:50:20;3.7;;;3;;
34146;SDS011;20423;49.448;9.056;2023-07-20T13:55:56;3.6;;;3.2;;
34146;SDS011;20423;49.448;9.056;2023-07-20T14:00:14;2.2;;;2;;
34146;SDS011;20423;49.448;9.056;2023-07-20T14:05:14;2.9;;;2.6;;
34146;SDS011;20423;49.448;9.056;2023-07-20T14:10:40;9;;;8.4;;
34146;SDS011;20423;49.448;9.056;2023-07-20T14:15:56;13;;;11.8;;
34146;SDS011;20423;49.448;9.056;2023-07-20T14:20:48;4.3;;;3.9;;
34146;SDS011;20423;49.448;9.056;2023-07-20T14:25:16;3.2;;;2.6;;
34146;SDS011;20423;49.448;9.056;2023-07-20T14:30:56;3.8;;;3.4;;
34146;SDS011;20423;49.448;9.056;2023-07-20T14:35:28;3.9;;;3.7;;
34146;SDS011;20423;49.448;9.056;2023-07-20T14:40:56;6.9;;;6;;
34146;SDS011;20423;49.448;9.056;2023-07-20T14:45:08;9;;;7.5;;
34146;SDS011;20423;49.448;9.056;2023-07-20T14:50:56;4.4;;;4.1;;
34146;SDS011;20423;49.448;9.056;2023-07-20T14:55:48;15.2;;;13.7;;
34146;SDS011;20423;49.448;9.056;2023-07-20T15:00:34;10.3;;;9.6;;
34146;SDS011;20423;49.448;9.056;2023-07-20T15:05:08;9.2;;;8.3;;
34146;SDS011;20423;49.448;9.056;2023-07-20T15:10:34;4.6;;;4.2;;
34146;SDS011;20423;49.448;9.056;2023-07-20T15:15:48;5.7;;;4.6;;
34146;SDS011;20423;49.448;9.056;2023-07-20T15:20:16;4.7;;;3.6;;
34146;SDS011;20423;49.448;9.056;2023-07-20T15:25:56;2.2;;;1.7;;
34146;SDS011;20423;49.448;9.056;2023-07-20T15:30:40;1.8;;;1.2;;
34146;SDS011;20423;49.448;9.056;2023-07-20T15:35:56;1.8;;;1.6;;
34146;SDS011;20423;49.448;9.056;2023-07-20T15:40:08;1.8;;;1.7;;
34146;SDS011;20423;49.448;9.056;2023-07-20T15:45:08;4.4;;;4;;
34146;SDS011;20423;49.448;9.056;2023-07-20T15:50:56;5.7;;;4.2;;
34146;SDS011;20423;49.448;9.056;2023-07-20T15:55:52;2;;;1.9;;
34146;SDS011;20423;49.448;9.056;2023-07-20T16:00:12;2.6;;;1.9;;
34146;SDS011;20423;49.448;9.056;2023-07-20T16:05:08;4.4;;;4;;
34146;SDS011;20423;49.448;9.056;2023-07-20T16:10:08;7.4;;;6.6;;
34146;SDS011;20423;49.448;9.056;2023-07-20T16:15:14;2.9;;;2.6;;
34146;SDS011;20423;49.448;9.056;2023-07-20T16:20:08;4.2;;;3.8;;
34146;SDS011;20423;49.448;9.056;2023-07-20T16:25:56;4.8;;;4.6;;
34146;SDS011;20423;49.448;9.056;2023-07-20T16:30:36;7.4;;;6.6;;
34146;SDS011;20423;49.448;9.056;2023-07-20T16:35:56;5;;;4.8;;
34146;SDS011;20423;49.448;9.056;2023-07-20T16:40:14;3.3;;;2.6;;
34146;SDS011;20423;49.448;9.056;2023-07-20T16:45:08;2.8;;;2.2;;
34146;SDS011;20423;49.448;9.056;2023-07-20T16:50:14;2.6;;;1.7;;
34146;SDS011;20423;49.448;9.056;2023-07-20T16:55:08;2.3;;;1.8;;
34146;SDS011;20423;49.448;9.056;2023-07-20T17:00:28;1.7;;;1.4;;
34146;SDS011;20423;49.448;9.056;2023-07-20T17:05:36;2.6;;;1.8;;
34146;SDS011;20423;49.448;9.056;2023-07-20T17:10:37;10.8;;;7.8;;
34146;SDS011;20423;49.448;9.056;2023-07-20T17:15:08;6.6;;;5.7;;
34146;SDS011;20423;49.448;9.056;2023-07-20T17:20:08;12.3;;;10.6;;
34146;SDS011;20423;49.448;9.056;2023-07-20T17:25:56;8.1;;;6.4;;
34146;SDS011;20423;49.448;9.056;2023-07-20T17:30:57;6.7;;;5.8;;
34146;SDS011;20423;49.448;9.056;2023-07-20T17:35:28;4;;;3.5;;
34146;SDS011;20423;49.448;9.056;2023-07-20T17:40:36;3.2;;;2.1;;
34146;SDS011;20423;49.448;9.056;2023-07-20T17:45:36;1.5;;;1.3;;
34146;SDS011;20423;49.448;9.056;2023-07-20T17:50:08;1;;;0.9;;
34146;SDS011;20423;49.448;9.056;2023-07-20T17:55:30;0.8;;;0.8;;
34146;SDS011;20423;49.448;9.056;2023-07-20T18:00:40;1.4;;;1;;
34146;SDS011;20423;49.448;9.056;2023-07-20T18:05:56;1.7;;;1.3;;
34146;SDS011;20423;49.448;9.056;2023-07-20T18:11:01;1.9;;;1.2;;
34146;SDS011;20423;49.448;9.056;2023-07-20T18:15:14;2.7;;;1.8;;
34146;SDS011;20423;49.448;9.056;2023-07-20T18:20:56;2.2;;;2;;
34146;SDS011;20423;49.448;9.056;2023-07-20T18:25:08;2.7;;;2.1;;
34146;SDS011;20423;49.448;9.056;2023-07-20T18:30:08;2.7;;;2.5;;
34146;SDS011;20423;49.448;9.056;2023-07-20T18:35:40;3.6;;;2.9;;
34146;SDS011;20423;49.448;9.056;2023-07-20T18:40:36;3.5;;;3;;
34146;SDS011;20423;49.448;9.056;2023-07-20T18:45:51;4;;;3.5;;
34146;SDS011;20423;49.448;9.056;2023-07-20T18:50:40;4.5;;;3.7;;
34146;SDS011;20423;49.448;9.056;2023-07-20T18:55:08;4.5;;;3.3;;
34146;SDS011;20423;49.448;9.056;2023-07-20T19:00:14;4.2;;;3.4;;
34146;SDS011;20423;49.448;9.056;2023-07-20T19:05:56;4.3;;;3.7;;
34146;SDS011;20423;49.448;9.056;2023-07-20T19:10:34;4.5;;;3.7;;
34146;SDS011;20423;49.448;9.056;2023-07-20T19:15:28;5.8;;;4.5;;
34146;SDS011;20423;49.448;9.056;2023-07-20T19:20:58;5.1;;;4.4;;
34146;SDS011;20423;49.448;9.056;2023-07-20T19:25:56;5;;;4.7;;
34146;SDS011;20423;49.448;9.056;2023-07-20T19:30:32;6.9;;;5.6;;
34146;SDS011;20423;49.448;9.056;2023-07-20T19:35:40;5.2;;;4.4;;
34146;SDS011;20423;49.448;9.056;2023-07-20T19:40:16;5.9;;;5.4;;
34146;SDS011;20423;49.448;9.056;2023-07-20T19:45:48;5.4;;;4.8;;
34146;SDS011;20423;49.448;9.056;2023-07-20T19:50:28;6.2;;;5.3;;
34146;SDS011;20423;49.448;9.056;2023-07-20T19:55:08;4.7;;;4.4;;
34146;SDS011;20423;49.448;9.056;2023-07-20T20:00:56;5.6;;;5.2;;
34146;SDS011;20423;49.448;9.056;2023-07-20T20:05:14;5.1;;;4.6;;
34146;SDS011;20423;49.448;9.056;2023-07-20T20:10:08;6.5;;;5.4;;
34146;SDS011;20423;49.448;9.056;2023-07-20T20:15:56;19.7;;;17.9;;
34146;SDS011;20423;49.448;9.056;2023-07-20T20:20:48;10.8;;;9.2;;
34146;SDS011;20423;49.448;9.056;2023-07-20T20:25:22;10.6;;;9.8;;
34146;SDS011;20423;49.448;9.056;2023-07-20T20:30:56;7.3;;;6.6;;
34146;SDS011;20423;49.448;9.056;2023-07-20T20:35:09;12.3;;;11;;
34146;SDS011;20423;49.448;9.056;2023-07-20T20:40:14;11.3;;;9.6;;
34146;SDS011;20423;49.448;9.056;2023-07-20T20:45:33;7.6;;;6.6;;
34146;SDS011;20423;49.448;9.056;2023-07-20T20:50:58;8.8;;;7.6;;
34146;SDS011;20423;49.448;9.056;2023-07-20T20:55:36;6.3;;;5.6;;
34146;SDS011;20423;49.448;9.056;2023-07-20T21:00:58;7;;;6.6;;
34146;SDS011;20423;49.448;9.056;2023-07-20T21:05:21;5.9;;;5.6;;
34146;SDS011;20423;49.448;9.056;2023-07-20T21:10:14;7;;;6;;
34146;SDS011;20423;49.448;9.056;2023-07-20T21:15:08;6.9;;;6.3;;
34146;SDS011;20423;49.448;9.056;2023-07-20T21:20:32;7;;;6.1;;
34146;SDS011;20423;49.448;9.056;2023-07-20T21:25:28;8;;;6.6;;
34146;SDS011;20423;49.448;9.056;2023-07-20T21:30:36;6.8;;;6.5;;
34146;SDS011;20423;49.448;9.056;2023-07-20T21:35:36;6.6;;;6.4;;
34146;SDS011;20423;49.448;9.056;2023-07-20T21:40:20;9.2;;;7.6;;
34146;SDS011;20423;49.448;9.056;2023-07-20T21:45:09;7.4;;;7;;
34146;SDS011;20423;49.448;9.056;2023-07-20T21:50:54;8.1;;;7.2;;
34146;SDS011;20423;49.448;9.056;2023-07-20T21:55:34;8.1;;;7.5;;
34146;SDS011;20423;49.448;9.056;2023-07-20T22:00:28;6.7;;;6.1;;
34146;SDS011;20423;49.448;9.056;2023-07-20T22:05:40;7.1;;;6.6;;
34146;SDS011;20423;49.448;9.056;2023-07-20T22:10:36;7.9;;;6.8;;
34146;SDS011;20423;49.448;9.056;2023-07-20T22:15:28;7.2;;;6.4;;
34146;SDS011;20423;49.448;9.056;2023-07-20T22:20:11;7.9;;;7;;
34146;SDS011;20423;49.448;9.056;2023-07-20T22:25:40;6.4;;;5.8;;
34146;SDS011;20423;49.448;9.056;2023-07-20T22:30:57;7.2;;;6.1;;
34146;SDS011;20423;49.448;9.056;2023-07-20T22:35:56;6.1;;;5.7;;
34146;SDS011;20423;49.448;9.056;2023-07-20T22:40:20;6.5;;;5.9;;
34146;SDS011;20423;49.448;9.056;2023-07-20T22:45:56;6.1;;;5.2;;
34146;SDS011;20423;49.448;9.056;2023-07-20T22:50:14;6.1;;;5.5;;
34146;SDS011;20423;49.448;9.056;2023-07-20T22:55:56;5.6;;;4.9;;
34146;SDS011;20423;49.448;9.056;2023-07-20T23:00:32;5;;;4.6;;
34146;SDS011;20423;49.448;9.056;2023-07-20T23:05:56;5.7;;;5.1;;
34146;SDS011;20423;49.448;9.056;2023-07-20T23:10:49;5.5;;;4.8;;
34146;SDS011;20423;49.448;9.056;2023-07-20T23:15:56;5.9;;;5.1;;
34146;SDS011;20423;49.448;9.056;2023-07-20T23:20:14;5;;;4.8;;
34146;SDS011;20423;49.448;9.056;2023-07-20T23:25:15;5.7;;;4.9;;
34146;SDS011;20423;49.448;9.056;2023-07-20T23:30:56;4.9;;;4.1;;
34146;SDS011;20423;49.448;9.056;2023-07-20T23:35:08;5.3;;;4.3;;
34146;SDS011;20423;49.448;9.056;2023-07-20T23:40:28;4.8;;;4.3;;
34146;SDS011;20423;49.448;9.056;2023-07-20T23:45:36;5.1;;;4.4;;
34146;SDS011;20423;49.448;9.056;2023-07-20T23:50:40;4.6;;;4.4;;
34146;SDS011;20423;49.448;9.056;2023-07-20T23:55:08;5.1;;;4.6;;
